Time;durP1;ratioP1;P1;durP2;ratioP2;P2;SDS_P1;SDS_P2;PMS_P1;PMS_P2;Temp;Humidity;BMP_temperature;BMP_pressure;BME280_temperature;BME280_humidity;BME280_pressure;Samples;Min_cycle;Max_cycle;Signal;HPM_P1;HPM_P2
2021/08/11 00:00:54;;;;;;;3.30;3.00;;;;;;;16.62;70.92;95944.06;5079414;28;20183;-74
2021/08/11 00:03:19;;;;;;;4.07;3.03;;;;;;;16.74;70.29;95949.72;5079080;28;20214;-74
2021/08/11 00:05:46;;;;;;;3.15;2.85;;;;;;;16.75;70.39;95942.69;5096087;28;20202;-74
2021/08/11 00:08:11;;;;;;;5.28;3.40;;;;;;;16.70;70.41;95938.78;5113971;28;20175;-74
2021/08/11 00:10:36;;;;;;;2.97;2.65;;;;;;;16.32;71.91;95943.09;5079025;28;20639;-74
2021/08/11 00:13:02;;;;;;;3.63;2.85;;;;;;;16.48;71.20;95944.81;5095565;28;20237;-74
2021/08/11 00:15:27;;;;;;;3.45;2.83;;;;;;;16.54;71.17;95938.06;5095738;28;20290;-74
2021/08/11 00:17:52;;;;;;;4.15;2.63;;;;;;;16.53;71.01;95945.09;5095694;28;20693;-74
2021/08/11 00:20:18;;;;;;;4.90;2.97;;;;;;;16.52;71.21;95940.88;5113907;28;20163;-74
2021/08/11 00:22:43;;;;;;;3.97;2.92;;;;;;;16.51;71.22;95941.81;5113281;28;20222;-73
2021/08/11 00:25:09;;;;;;;5.75;2.75;;;;;;;16.52;71.33;95942.63;5113783;28;20476;-74
2021/08/11 00:27:34;;;;;;;4.93;2.90;;;;;;;16.50;71.21;95936.75;5095442;28;20556;-75
2021/08/11 00:30:01;;;;;;;3.08;2.80;;;;;;;16.48;71.56;95934.31;5095471;28;20257;-75
2021/08/11 00:32:26;;;;;;;5.25;3.00;;;;;;;16.51;71.04;95938.38;5113454;28;20178;-75
2021/08/11 00:34:52;;;;;;;4.55;3.17;;;;;;;16.51;71.13;95933.16;5095395;28;20294;-74
2021/08/11 00:37:17;;;;;;;5.13;2.83;;;;;;;16.53;71.02;95934.63;5078359;28;20196;-76
2021/08/11 00:39:43;;;;;;;3.88;2.90;;;;;;;16.55;71.06;95926.56;5113489;28;20540;-75
2021/08/11 00:42:08;;;;;;;3.65;2.88;;;;;;;16.52;71.11;95935.63;5094778;28;20179;-75
2021/08/11 00:44:33;;;;;;;4.53;3.03;;;;;;;16.47;71.10;95932.69;5095259;28;20645;-76
2021/08/11 00:46:59;;;;;;;4.22;2.58;;;;;;;16.43;71.63;95928.78;5095202;28;20195;-75
2021/08/11 00:49:24;;;;;;;4.30;2.70;;;;;;;16.43;71.15;95934.84;5095167;28;20207;-75
2021/08/11 00:51:50;;;;;;;4.82;3.38;;;;;;;16.38;71.46;95931.13;5095285;28;20175;-75
2021/08/11 00:54:16;;;;;;;3.35;2.78;;;;;;;16.32;71.83;95932.63;5094968;28;20188;-75
2021/08/11 00:56:44;;;;;;;4.07;3.45;;;;;;;16.32;72.01;95929.19;5084224;27;20236;-75
2021/08/11 00:59:11;;;;;;;4.38;2.90;;;;;;;16.30;71.60;95924.13;5115344;27;20175;-75
2021/08/11 01:01:39;;;;;;;3.83;3.15;;;;;;;16.26;72.14;95930.72;5115174;27;20179;-75
2021/08/11 01:04:04;;;;;;;7.07;3.20;;;;;;;16.20;72.15;95925.34;5098117;27;20647;-75
2021/08/11 01:06:30;;;;;;;5.47;3.00;;;;;;;16.13;72.60;95931.25;5115177;27;20247;-75
2021/08/11 01:08:56;;;;;;;5.43;3.17;;;;;;;16.10;72.48;95933.41;5133571;27;20171;-75
2021/08/11 01:11:23;;;;;;;3.22;2.90;;;;;;;16.07;72.47;95934.56;5114552;27;20665;-75
2021/08/11 01:13:48;;;;;;;2.85;2.60;;;;;;;16.05;72.92;95935.72;5114854;27;20230;-76
2021/08/11 01:16:14;;;;;;;4.32;3.38;;;;;;;16.09;72.86;95935.22;5115129;27;20675;-75
2021/08/11 01:18:39;;;;;;;3.38;3.08;;;;;;;16.13;72.58;95939.13;5115034;27;20261;-75
2021/08/11 01:21:07;;;;;;;5.45;2.75;;;;;;;16.19;72.53;95942.88;5115112;27;20262;-75
2021/08/11 01:23:41;;;;;;;4.95;2.70;;;;;;;16.19;72.42;95937.63;5114636;27;20168;-75
2021/08/11 01:26:11;;;;;;;3.47;3.00;;;;;;;16.21;72.38;95935.63;5097661;27;20201;-75
2021/08/11 01:29:10;;;;;;;5.57;2.90;;;;;;;16.20;72.39;95930.56;5097818;27;20171;-76
2021/08/11 01:31:43;;;;;;;3.83;2.83;;;;;;;16.17;72.69;95934.38;5114498;27;20171;-75
2021/08/11 01:34:37;;;;;;;3.78;3.13;;;;;;;16.07;72.92;95925.88;5113867;27;20275;-75
2021/08/11 01:37:07;;;;;;;3.83;2.97;;;;;;;15.98;73.17;95925.09;5133037;27;20528;-75
2021/08/11 01:39:37;;;;;;;3.53;3.13;;;;;;;15.93;73.17;95924.00;5097478;27;20177;-75
2021/08/11 01:42:09;;;;;;;3.42;2.75;;;;;;;15.89;73.40;95934.00;5097648;27;20210;-76
2021/08/11 01:44:43;;;;;;;5.45;3.72;;;;;;;15.82;73.90;95926.03;5114491;27;20262;-75
2021/08/11 01:47:14;;;;;;;3.28;2.97;;;;;;;15.78;73.89;95921.28;5097391;27;20210;-75
2021/08/11 01:49:42;;;;;;;4.53;3.00;;;;;;;15.72;74.15;95921.97;5114524;27;20224;-75
2021/08/11 01:52:07;;;;;;;3.80;2.72;;;;;;;15.66;74.06;95918.25;5114244;27;20261;-75
2021/08/11 01:54:34;;;;;;;4.55;3.15;;;;;;;15.62;74.48;95914.31;5097300;27;20290;-75
2021/08/11 01:57:00;;;;;;;4.85;3.30;;;;;;;15.55;74.53;95913.34;5097323;27;20214;-75
2021/08/11 01:59:26;;;;;;;4.07;2.92;;;;;;;15.52;74.95;95908.44;5114245;28;20171;-75
2021/08/11 02:01:51;;;;;;;5.28;3.28;;;;;;;15.48;74.83;95912.38;5132496;27;20223;-76
2021/08/11 02:04:16;;;;;;;4.68;3.00;;;;;;;15.46;74.91;95907.31;5114352;27;20575;-75
2021/08/11 02:06:43;;;;;;;3.40;3.05;;;;;;;15.45;75.18;95904.84;5114030;27;20226;-75
2021/08/11 02:09:11;;;;;;;4.20;3.05;;;;;;;15.41;75.07;95908.81;5114245;28;20167;-75
2021/08/11 02:11:38;;;;;;;4.80;3.08;;;;;;;15.37;75.62;95905.72;5096977;27;20171;-75
2021/08/11 02:14:04;;;;;;;3.40;2.92;;;;;;;15.33;75.38;95904.41;5132317;27;20202;-75
2021/08/11 02:16:30;;;;;;;7.55;3.17;;;;;;;15.30;75.66;95915.22;5114148;28;20191;-75
2021/08/11 02:18:55;;;;;;;4.03;3.15;;;;;;;15.26;76.25;95914.72;5114095;28;20167;-72
2021/08/11 02:21:20;;;;;;;5.50;3.13;;;;;;;15.26;76.39;95919.13;5113930;28;20279;-74
2021/08/11 02:23:46;;;;;;;5.47;3.25;;;;;;;15.28;76.04;95925.00;5113803;28;20174;-74
2021/08/11 02:26:38;;;;;;;5.88;3.70;;;;;;;15.28;76.33;95927.63;5132426;28;20190;-74
2021/08/11 02:29:22;;;;;;;3.20;2.88;;;;;;;15.22;76.34;95923.09;5132400;28;20171;-74
2021/08/11 02:32:00;;;;;;;3.13;2.83;;;;;;;15.19;76.86;95918.16;5132075;28;20174;-74
2021/08/11 02:34:28;;;;;;;4.00;3.20;;;;;;;15.11;77.04;95921.66;5114055;28;20248;-74
2021/08/11 02:36:57;;;;;;;4.25;3.65;;;;;;;15.09;77.14;95918.34;5132023;28;20290;-74
2021/08/11 02:39:26;;;;;;;4.97;3.00;;;;;;;15.08;77.01;95921.16;5113749;28;20639;-74
2021/08/11 02:41:59;;;;;;;4.68;3.10;;;;;;;15.01;77.42;95913.94;5113647;28;20194;-74
2021/08/11 02:44:36;;;;;;;5.10;3.10;;;;;;;14.99;77.45;95915.09;5115270;27;20171;-74
2021/08/11 02:47:03;;;;;;;3.97;2.90;;;;;;;14.99;77.49;95915.91;5117946;27;20190;-74
2021/08/11 02:49:30;;;;;;;4.70;3.25;;;;;;;14.99;77.41;95918.53;5117592;27;20667;-75
2021/08/11 02:51:58;;;;;;;3.38;2.88;;;;;;;15.05;76.99;95916.25;5117655;27;20194;-74
2021/08/11 02:54:24;;;;;;;4.75;3.17;;;;;;;15.09;76.98;95912.31;5100699;27;20203;-75
2021/08/11 02:56:50;;;;;;;3.45;3.10;;;;;;;15.11;76.95;95905.94;5117570;27;20678;-75
2021/08/11 02:59:15;;;;;;;3.38;2.70;;;;;;;15.07;77.28;95909.06;5100628;27;20232;-74
2021/08/11 03:01:42;;;;;;;7.07;3.28;;;;;;;14.98;78.30;95906.44;5117473;27;20191;-74
2021/08/11 03:04:07;;;;;;;4.97;3.45;;;;;;;15.06;78.00;95916.09;5117949;27;20174;-74
2021/08/11 03:06:33;;;;;;;3.78;3.38;;;;;;;15.14;77.89;95912.63;5117543;27;20565;-73
2021/08/11 03:08:59;;;;;;;4.15;3.45;;;;;;;15.23;77.87;95915.06;5117761;27;20224;-74
2021/08/11 03:11:24;;;;;;;4.35;3.17;;;;;;;15.34;77.34;95915.69;5083571;27;20198;-75
2021/08/11 03:13:49;;;;;;;5.35;3.70;;;;;;;15.45;76.69;95916.13;5100510;27;20195;-74
2021/08/11 03:16:15;;;;;;;5.90;3.75;;;;;;;15.46;76.87;95906.47;5117275;27;20558;-74
2021/08/11 03:18:40;;;;;;;4.43;3.63;;;;;;;15.54;76.57;95909.88;5135667;27;20250;-75
2021/08/11 03:21:06;;;;;;;6.65;3.53;;;;;;;15.67;75.85;95919.88;5117362;27;20748;-75
2021/08/11 03:23:32;;;;;;;6.32;3.88;;;;;;;15.69;75.76;95910.03;5116880;27;20201;-74
2021/08/11 03:25:57;;;;;;;4.03;3.10;;;;;;;15.80;75.11;95914.06;5117045;27;20252;-74
2021/08/11 03:28:23;;;;;;;4.70;3.80;;;;;;;15.73;75.41;95910.53;5117170;27;20171;-75
2021/08/11 03:30:48;;;;;;;5.32;3.70;;;;;;;15.71;75.45;95922.94;5100043;27;20174;-75
2021/08/11 03:33:14;;;;;;;4.38;3.35;;;;;;;15.70;75.42;95921.31;5135001;27;20241;-75
2021/08/11 03:35:39;;;;;;;6.10;3.90;;;;;;;15.65;75.93;95932.31;5099662;27;20248;-73
2021/08/11 03:38:05;;;;;;;7.53;3.42;;;;;;;15.67;75.53;95919.06;5135452;27;20168;-74
2021/08/11 03:40:30;;;;;;;4.57;3.40;;;;;;;15.66;75.77;95920.84;5135277;27;20198;-74
2021/08/11 03:42:55;;;;;;;3.92;3.40;;;;;;;15.56;76.21;95920.22;5134889;27;20686;-75
2021/08/11 03:45:21;;;;;;;5.75;3.83;;;;;;;15.52;76.04;95924.94;5135023;27;20167;-74
2021/08/11 03:47:46;;;;;;;4.47;3.58;;;;;;;15.48;76.17;95923.66;5116488;27;20175;-74
2021/08/11 03:50:16;;;;;;;3.63;3.17;;;;;;;15.49;76.21;95925.31;5099689;27;20171;-74
2021/08/11 03:52:42;;;;;;;4.38;3.20;;;;;;;15.51;75.86;95923.31;5134654;27;20171;-74
2021/08/11 03:55:08;;;;;;;3.80;3.40;;;;;;;15.45;76.39;95929.22;5116486;27;20173;-74
2021/08/11 03:57:33;;;;;;;5.32;3.75;;;;;;;15.38;76.62;95928.28;5134110;27;20233;-74
2021/08/11 03:59:59;;;;;;;5.00;3.38;;;;;;;15.34;76.50;95921.75;5134788;27;20175;-74
2021/08/11 04:02:24;;;;;;;4.30;3.50;;;;;;;15.28;76.75;95925.00;5116133;27;20218;-73
2021/08/11 04:04:49;;;;;;;6.30;3.78;;;;;;;15.23;76.93;95925.53;5099432;27;20167;-74
2021/08/11 04:07:15;;;;;;;6.95;3.67;;;;;;;15.19;77.31;95929.44;5116184;27;20228;-74
2021/08/11 04:09:40;;;;;;;6.28;3.92;;;;;;;15.18;77.33;95927.00;5116369;27;20180;-74
2021/08/11 04:12:06;;;;;;;4.10;3.45;;;;;;;15.14;77.45;95916.06;5116101;27;20665;-74
2021/08/11 04:14:31;;;;;;;5.25;3.40;;;;;;;15.15;77.31;95922.13;5116096;27;20701;-74
2021/08/11 04:16:57;;;;;;;5.15;3.67;;;;;;;15.09;77.54;95920.97;5134295;27;20278;-75
2021/08/11 04:19:22;;;;;;;6.25;3.60;;;;;;;15.16;77.48;95918.50;5134472;27;20240;-75
2021/08/11 04:21:47;;;;;;;5.57;3.63;;;;;;;15.19;77.32;95918.97;5115814;27;20312;-75
2021/08/11 04:24:12;;;;;;;5.40;3.58;;;;;;;15.15;77.73;95927.34;5134454;27;20541;-75
2021/08/11 04:26:38;;;;;;;6.43;4.22;;;;;;;15.26;77.09;95922.56;5115947;27;20247;-75
2021/08/11 04:29:03;;;;;;;4.82;3.63;;;;;;;15.34;77.02;95921.75;5098748;27;20258;-75
2021/08/11 04:31:28;;;;;;;4.75;3.78;;;;;;;15.42;76.90;95921.72;5133895;27;20542;-75
2021/08/11 04:33:54;;;;;;;5.05;3.60;;;;;;;15.50;76.17;95921.69;5115755;27;20599;-75
2021/08/11 04:36:19;;;;;;;4.53;3.40;;;;;;;15.60;75.66;95921.50;5134088;27;20191;-76
2021/08/11 04:38:44;;;;;;;6.55;3.80;;;;;;;15.63;75.55;95931.66;5115801;27;20626;-75
2021/08/11 04:41:12;;;;;;;5.55;3.60;;;;;;;15.69;75.25;95935.41;5115360;27;20175;-75
2021/08/11 04:43:38;;;;;;;7.68;4.05;;;;;;;15.74;75.16;95935.72;5098588;27;20167;-75
2021/08/11 04:46:05;;;;;;;3.85;3.28;;;;;;;15.87;74.87;95925.50;5133922;27;20239;-75
2021/08/11 04:48:30;;;;;;;5.63;3.80;;;;;;;16.07;74.20;95939.78;5134017;27;20221;-75
2021/08/11 04:50:55;;;;;;;8.23;4.30;;;;;;;16.19;73.64;95942.06;5115580;27;20576;-75
2021/08/11 04:53:21;;;;;;;5.95;4.07;;;;;;;16.25;72.81;95934.28;5115178;27;20191;-75
2021/08/11 04:55:46;;;;;;;5.22;3.78;;;;;;;16.39;72.84;95928.31;5115223;27;20241;-75
2021/08/11 04:58:11;;;;;;;3.92;3.60;;;;;;;16.49;72.67;95937.75;5115291;27;20267;-76
2021/08/11 05:00:37;;;;;;;6.68;3.28;;;;;;;16.64;71.83;95930.78;5133711;27;20634;-75
2021/08/11 05:03:02;;;;;;;6.10;3.75;;;;;;;16.67;71.70;95925.97;5133449;27;20220;-74
2021/08/11 05:05:27;;;;;;;8.73;3.60;;;;;;;17.44;70.40;95938.09;5115142;27;20171;-74
2021/08/11 05:07:53;;;;;;;7.13;3.55;;;;;;;18.81;64.39;95934.66;5115132;27;20565;-74
2021/08/11 05:10:19;;;;;;;5.03;3.03;;;;;;;20.47;60.21;95949.66;5133477;27;20175;-74
2021/08/11 05:12:44;;;;;;;4.28;2.85;;;;;;;21.62;56.51;95942.41;5115028;27;20526;-74
2021/08/11 05:15:10;;;;;;;4.38;2.65;;;;;;;22.02;53.07;95941.28;5114823;27;20175;-74
2021/08/11 05:17:35;;;;;;;5.78;2.80;;;;;;;21.95;54.12;95943.13;5133369;27;20171;-74
2021/08/11 05:20:01;;;;;;;3.50;2.95;;;;;;;21.54;55.07;95943.41;5114756;27;20175;-75
2021/08/11 05:22:26;;;;;;;3.63;2.90;;;;;;;20.74;56.95;95949.72;5114890;27;20171;-75
2021/08/11 05:24:51;;;;;;;4.47;2.63;;;;;;;19.95;59.14;95950.25;5114968;27;20167;-75
2021/08/11 05:27:17;;;;;;;3.78;3.03;;;;;;;19.53;60.75;95952.84;5097897;27;20190;-74
2021/08/11 05:29:44;;;;;;;4.50;3.30;;;;;;;19.28;61.72;95956.13;5114852;27;20171;-74
2021/08/11 05:32:10;;;;;;;3.83;3.13;;;;;;;18.99;62.98;95954.44;5097737;27;20659;-74
2021/08/11 05:34:35;;;;;;;4.00;2.90;;;;;;;19.01;62.90;95950.66;5114735;27;20198;-75
2021/08/11 05:37:00;;;;;;;7.28;3.38;;;;;;;18.98;63.80;95952.81;5133049;27;20187;-74
2021/08/11 05:39:26;;;;;;;6.53;3.20;;;;;;;19.09;63.17;95949.69;5114691;27;20180;-75
2021/08/11 05:41:51;;;;;;;6.22;3.40;;;;;;;19.00;63.87;95950.84;5114386;27;20178;-74
2021/08/11 05:44:16;;;;;;;8.75;3.70;;;;;;;18.99;63.93;95947.38;5114321;27;20196;-76
2021/08/11 05:46:42;;;;;;;8.23;3.42;;;;;;;19.00;64.07;95951.66;5132875;27;20670;-74
2021/08/11 05:49:07;;;;;;;4.15;3.70;;;;;;;19.11;64.15;95955.59;5105099;27;20191;-74
2021/08/11 05:51:34;;;;;;;3.92;3.13;;;;;;;18.94;64.55;95944.50;5114057;27;20550;-74
2021/08/11 05:54:01;;;;;;;5.15;3.38;;;;;;;19.07;64.13;95960.41;5103661;27;20187;-74
2021/08/11 05:56:26;;;;;;;4.68;3.22;;;;;;;19.31;63.93;95959.16;5114078;27;20239;-75
2021/08/11 05:58:52;;;;;;;6.57;3.45;;;;;;;19.34;63.42;95956.16;5132630;27;20198;-75
2021/08/11 06:01:17;;;;;;;4.88;2.95;;;;;;;19.67;62.44;95964.28;5097048;28;20536;-76
2021/08/11 06:03:42;;;;;;;3.85;3.13;;;;;;;19.79;61.98;95968.03;5132605;27;20171;-74
2021/08/11 06:06:09;;;;;;;7.03;3.60;;;;;;;19.84;61.73;95972.69;5132316;27;20243;-74
2021/08/11 06:08:35;;;;;;;3.63;2.53;;;;;;;19.91;61.77;95970.91;5113871;27;20178;-75
2021/08/11 06:11:00;;;;;;;4.05;3.40;;;;;;;19.88;62.50;95958.16;5114224;28;20171;-75
2021/08/11 06:13:26;;;;;;;3.85;2.95;;;;;;;20.56;61.26;95976.66;5096892;27;20274;-75
2021/08/11 06:15:51;;;;;;;4.35;2.80;;;;;;;21.38;60.19;95972.91;5096868;28;20211;-75
2021/08/11 06:18:17;;;;;;;3.88;2.92;;;;;;;22.48;56.50;95973.84;5113650;27;20179;-75
2021/08/11 06:20:43;;;;;;;2.95;2.70;;;;;;;23.83;53.74;95976.94;5103326;27;20194;-74
2021/08/11 06:23:08;;;;;;;3.20;2.67;;;;;;;25.17;48.66;95973.22;5120654;27;20681;-74
2021/08/11 06:25:33;;;;;;;3.70;2.90;;;;;;;26.19;45.84;95976.34;5103827;27;20682;-75
2021/08/11 06:27:58;;;;;;;2.65;2.40;;;;;;;26.69;43.62;95970.44;5139104;27;20175;-74
2021/08/11 06:30:24;;;;;;;3.88;2.60;;;;;;;26.92;43.40;95979.34;5121040;27;20178;-75
2021/08/11 06:32:49;;;;;;;4.10;2.40;;;;;;;26.74;42.22;95980.34;5120659;27;20328;-74
2021/08/11 06:35:15;;;;;;;5.05;2.90;;;;;;;26.49;43.84;95980.69;5139440;27;20183;-75
2021/08/11 06:37:44;;;;;;;5.20;2.75;;;;;;;26.17;43.77;95983.75;5099424;28;20321;-75
2021/08/11 06:40:10;;;;;;;6.35;2.53;;;;;;;26.78;42.58;95986.84;5083335;28;20175;-75
2021/08/11 06:42:35;;;;;;;3.10;2.38;;;;;;;26.38;42.51;95981.53;5121440;27;20254;-75
2021/08/11 06:45:01;;;;;;;5.75;2.50;;;;;;;26.20;42.89;95993.13;5139088;27;20175;-75
2021/08/11 06:47:26;;;;;;;3.65;2.78;;;;;;;26.29;42.11;95990.91;5120831;27;20199;-75
2021/08/11 06:49:51;;;;;;;3.97;2.58;;;;;;;26.32;41.23;95991.22;5139152;27;20197;-75
2021/08/11 06:52:17;;;;;;;4.38;2.85;;;;;;;27.06;41.04;95991.34;5120530;27;20171;-76
2021/08/11 06:54:42;;;;;;;4.75;2.83;;;;;;;27.38;40.36;95984.41;5120724;27;20243;-75
2021/08/11 06:57:07;;;;;;;3.65;2.55;;;;;;;27.94;38.89;95987.97;5138994;27;20206;-75
2021/08/11 06:59:33;;;;;;;5.20;2.97;;;;;;;27.65;38.97;95991.75;5117051;27;20219;-75
2021/08/11 07:01:58;;;;;;;5.07;3.25;;;;;;;27.12;39.80;95989.56;5119525;27;20207;-76
2021/08/11 07:04:23;;;;;;;3.88;2.58;;;;;;;27.84;37.86;96005.69;5105220;27;20178;-77
2021/08/11 07:06:50;;;;;;;2.67;2.45;;;;;;;26.61;41.27;95993.97;5119475;27;20225;-78
2021/08/11 07:09:16;;;;;;;3.35;2.85;;;;;;;27.66;39.10;95993.44;5138936;27;20171;-78
2021/08/11 07:11:41;;;;;;;4.75;2.78;;;;;;;28.65;36.64;95995.28;5103691;27;20265;-78
2021/08/11 07:14:06;;;;;;;4.60;2.70;;;;;;;28.03;37.32;95995.53;5120202;27;20297;-76
2021/08/11 07:16:32;;;;;;;3.30;2.95;;;;;;;27.15;40.26;95989.91;5138726;27;20278;-76
2021/08/11 07:18:59;;;;;;;6.03;2.92;;;;;;;26.91;39.78;95988.38;5138720;27;20633;-76
2021/08/11 07:21:25;;;;;;;2.35;2.15;;;;;;;26.03;42.40;95990.38;5120372;27;20211;-76
2021/08/11 07:23:50;;;;;;;5.15;2.63;;;;;;;26.47;42.27;95988.91;5138702;27;20236;-76
2021/08/11 07:26:17;;;;;;;3.38;2.50;;;;;;;26.43;42.08;95993.09;5138617;27;20191;-76
2021/08/11 07:28:42;;;;;;;5.50;3.00;;;;;;;25.00;46.28;95991.66;5103475;27;20641;-76
2021/08/11 07:31:08;;;;;;;3.90;3.08;;;;;;;25.40;46.47;95983.88;5135517;27;20266;-76
2021/08/11 07:33:33;;;;;;;6.47;3.10;;;;;;;24.53;49.41;95994.13;5099812;27;20293;-76
2021/08/11 07:35:58;;;;;;;5.30;3.03;;;;;;;24.95;47.82;95993.34;5099721;27;20191;-76
2021/08/11 07:38:24;;;;;;;6.72;3.38;;;;;;;24.39;49.54;95992.69;5117136;27;20296;-75
2021/08/11 07:40:49;;;;;;;6.50;3.88;;;;;;;24.21;50.41;95985.50;5116717;27;20658;-75
2021/08/11 07:43:14;;;;;;;4.10;3.40;;;;;;;24.20;49.85;95983.88;5134854;27;20182;-76
2021/08/11 07:45:40;;;;;;;6.30;3.75;;;;;;;23.71;50.47;95984.81;5134970;27;20664;-76
2021/08/11 07:48:05;;;;;;;5.82;3.78;;;;;;;23.45;51.64;95981.34;5135383;27;20210;-75
2021/08/11 07:50:32;;;;;;;12.93;6.30;;;;;;;23.03;53.94;95988.22;5099843;27;20182;-75
2021/08/11 07:52:57;;;;;;;9.00;5.18;;;;;;;23.12;53.98;95978.16;5098058;28;20183;-75
2021/08/11 07:55:23;;;;;;;5.43;3.88;;;;;;;23.17;53.27;95967.75;5096117;28;20198;-75
2021/08/11 07:57:49;;;;;;;5.10;3.47;;;;;;;23.12;53.60;95976.31;5096110;28;20688;-76
2021/08/11 08:00:16;;;;;;;5.45;3.50;;;;;;;23.52;53.89;95980.50;5096187;28;20179;-75
2021/08/11 08:02:42;;;;;;;5.43;4.05;;;;;;;23.19;53.27;95973.63;5078834;28;20241;-75
2021/08/11 08:05:08;;;;;;;9.23;4.05;;;;;;;23.04;53.02;95968.63;5114312;28;20172;-75
2021/08/11 08:07:33;;;;;;;3.45;3.15;;;;;;;23.11;53.46;95971.25;5079017;28;20200;-75
2021/08/11 08:10:00;;;;;;;5.68;3.25;;;;;;;22.85;53.57;95970.41;5096078;28;20628;-75
2021/08/11 08:12:25;;;;;;;4.38;3.00;;;;;;;23.12;53.70;95976.31;5095868;28;20601;-75
2021/08/11 08:14:50;;;;;;;5.93;3.40;;;;;;;23.08;52.89;95971.69;5079168;27;20210;-75
2021/08/11 08:17:16;;;;;;;5.60;3.63;;;;;;;23.09;52.51;95971.47;5115203;27;20244;-75
2021/08/11 08:19:41;;;;;;;4.03;3.35;;;;;;;22.82;53.06;95975.28;5099145;27;20581;-74
2021/08/11 08:22:06;;;;;;;4.72;2.75;;;;;;;23.15;51.89;95967.16;5116012;27;20203;-76
2021/08/11 08:24:32;;;;;;;4.72;3.17;;;;;;;23.42;51.63;95973.84;5134483;27;20599;-75
2021/08/11 08:27:01;;;;;;;7.35;3.28;;;;;;;23.29;51.65;95973.13;5116118;27;20673;-75
2021/08/11 08:29:27;;;;;;;4.32;2.92;;;;;;;23.55;50.59;95969.44;5134458;27;20175;-76
2021/08/11 08:31:52;;;;;;;3.45;2.85;;;;;;;23.81;50.67;95979.03;5115434;27;20175;-75
2021/08/11 08:34:18;;;;;;;5.53;3.50;;;;;;;23.97;50.58;95987.22;5115717;27;20199;-76
2021/08/11 08:36:43;;;;;;;5.78;3.45;;;;;;;24.07;49.58;95980.56;5115964;27;20197;-75
2021/08/11 08:39:08;;;;;;;4.50;2.83;;;;;;;24.31;48.57;95985.00;5134026;27;20537;-75
2021/08/11 08:41:34;;;;;;;6.68;3.50;;;;;;;23.93;50.33;95991.31;5098031;27;20191;-75
2021/08/11 08:44:00;;;;;;;3.13;2.83;;;;;;;23.82;51.28;95985.94;5115551;27;20171;-74
2021/08/11 08:46:25;;;;;;;3.40;3.08;;;;;;;23.87;50.18;95989.56;5115637;27;20193;-76
2021/08/11 08:48:51;;;;;;;4.28;3.45;;;;;;;23.69;49.98;95992.19;5115435;27;20178;-75
2021/08/11 08:51:17;;;;;;;4.13;3.03;;;;;;;23.53;50.36;95988.22;5115355;27;20179;-76
2021/08/11 08:53:46;;;;;;;7.22;3.70;;;;;;;23.30;51.70;95990.66;5115378;27;20198;-75
2021/08/11 08:56:11;;;;;;;5.75;2.92;;;;;;;23.30;52.40;95988.81;5133424;27;20230;-76
2021/08/11 08:58:41;;;;;;;5.80;3.30;;;;;;;23.64;51.88;95994.69;5115624;27;20259;-76
2021/08/11 09:01:07;;;;;;;5.28;3.38;;;;;;;23.99;50.96;95993.09;5115473;27;20191;-75
2021/08/11 09:03:32;;;;;;;6.10;3.15;;;;;;;23.87;50.37;95997.53;5098022;27;20219;-74
2021/08/11 09:05:58;;;;;;;4.25;3.40;;;;;;;23.91;48.85;95995.22;5115335;27;20202;-75
2021/08/11 09:08:23;;;;;;;3.60;3.25;;;;;;;24.19;50.45;96002.66;5115276;27;20220;-76
2021/08/11 09:10:48;;;;;;;4.28;3.88;;;;;;;24.26;50.06;96000.75;5098139;27;20175;-76
2021/08/11 09:13:21;;;;;;;4.55;3.30;;;;;;;24.23;52.00;96004.69;5133342;27;20198;-75
2021/08/11 09:15:49;;;;;;;4.70;3.42;;;;;;;24.58;51.32;96002.22;5115554;27;20241;-75
2021/08/11 09:18:26;;;;;;;4.22;3.15;;;;;;;24.83;50.71;96006.63;5133504;27;20254;-74
2021/08/11 09:20:58;;;;;;;5.63;3.58;;;;;;;24.98;49.57;96000.88;5115020;27;20167;-75
2021/08/11 09:23:37;;;;;;;5.13;3.28;;;;;;;24.88;49.35;96006.72;5114785;27;20631;-75
2021/08/11 09:26:04;;;;;;;5.45;3.05;;;;;;;24.20;49.20;95998.97;5097736;27;20210;-75
2021/08/11 09:28:31;;;;;;;3.13;2.88;;;;;;;24.04;50.30;96003.06;5114753;27;20266;-75
2021/08/11 09:30:56;;;;;;;3.88;3.20;;;;;;;23.78;51.14;96006.78;5097612;27;20184;-76
2021/08/11 09:33:24;;;;;;;6.03;3.78;;;;;;;23.55;52.55;96011.84;5114568;27;20286;-76
2021/08/11 09:35:49;;;;;;;3.78;3.33;;;;;;;23.15;53.41;96007.69;5114871;27;20218;-75
2021/08/11 09:38:17;;;;;;;4.25;3.63;;;;;;;23.29;54.38;96002.28;5114724;27;20715;-74
2021/08/11 09:40:43;;;;;;;4.20;3.80;;;;;;;23.52;53.93;96002.50;5097617;27;20706;-75
2021/08/11 09:43:09;;;;;;;4.30;3.60;;;;;;;22.99;56.26;96002.91;5114158;27;20179;-75
2021/08/11 09:45:56;;;;;;;4.32;3.92;;;;;;;23.73;54.23;96006.63;5097537;27;20562;-76
2021/08/11 09:48:23;;;;;;;3.80;3.40;;;;;;;24.27;52.66;96013.81;5114705;27;20171;-75
2021/08/11 09:51:03;;;;;;;5.88;3.65;;;;;;;24.28;51.39;96009.31;5115000;27;20171;-75
2021/08/11 09:53:29;;;;;;;3.97;3.55;;;;;;;24.38;50.83;96006.97;5113977;28;20199;-76
2021/08/11 09:56:06;;;;;;;5.00;3.53;;;;;;;24.50;49.62;96015.81;5132620;27;20302;-73
2021/08/11 09:59:01;;;;;;;7.03;3.97;;;;;;;24.69;48.75;96008.63;5132454;27;20171;-74
2021/08/11 10:01:27;;;;;;;3.85;3.47;;;;;;;24.56;48.18;96020.25;5095786;27;20266;-74
2021/08/11 10:04:01;;;;;;;4.93;3.47;;;;;;;24.48;48.55;96017.09;5109510;27;20181;-74
2021/08/11 10:06:29;;;;;;;5.50;3.50;;;;;;;23.78;49.87;96014.75;5118104;27;20803;-74
2021/08/11 10:08:55;;;;;;;4.68;3.65;;;;;;;23.87;51.24;96013.44;5112006;27;20182;-75
2021/08/11 10:11:37;;;;;;;3.47;2.97;;;;;;;23.97;48.70;96015.56;5130579;27;20178;-74
2021/08/11 10:14:05;;;;;;;7.93;3.60;;;;;;;23.82;50.15;96017.75;5112325;28;20613;-75
2021/08/11 10:16:33;;;;;;;5.70;3.20;;;;;;;24.12;50.36;96010.72;5112302;28;20194;-74
2021/08/11 10:18:58;;;;;;;5.32;3.30;;;;;;;24.78;50.24;96020.56;5112338;28;20190;-73
2021/08/11 10:21:24;;;;;;;5.63;3.50;;;;;;;24.81;49.82;96017.44;5111684;28;20215;-75
2021/08/11 10:23:49;;;;;;;5.40;3.33;;;;;;;24.27;51.37;96023.59;5128768;28;20167;-75
2021/08/11 10:26:15;;;;;;;4.15;3.75;;;;;;;23.85;53.05;96018.13;5112148;28;20740;-75
2021/08/11 10:28:42;;;;;;;7.70;3.80;;;;;;;23.94;51.13;96023.94;5091674;28;20192;-76
2021/08/11 10:31:09;;;;;;;3.83;3.40;;;;;;;24.12;51.80;96028.47;5091727;28;20199;-76
2021/08/11 10:33:35;;;;;;;6.18;3.45;;;;;;;23.94;51.61;96022.13;5093208;28;20199;-76
2021/08/11 10:36:01;;;;;;;6.85;3.38;;;;;;;24.02;50.95;96019.16;5093217;28;20199;-76
2021/08/11 10:38:26;;;;;;;4.00;3.05;;;;;;;24.04;50.59;96020.81;5093600;28;20172;-75
2021/08/11 10:40:53;;;;;;;4.60;3.72;;;;;;;23.89;50.34;96027.28;5099450;28;20178;-75
2021/08/11 10:43:19;;;;;;;5.45;3.10;;;;;;;23.74;50.96;96024.97;5113562;28;20171;-75
2021/08/11 10:45:53;;;;;;;6.25;3.17;;;;;;;24.18;50.42;96028.41;5096653;28;20738;-75
2021/08/11 10:48:19;;;;;;;3.85;3.10;;;;;;;24.13;51.31;96030.91;5114146;28;20434;-75
2021/08/11 10:50:45;;;;;;;4.55;3.35;;;;;;;24.48;50.66;96039.13;5096651;28;20189;-75
2021/08/11 10:53:11;;;;;;;4.85;3.40;;;;;;;24.60;49.47;96043.69;5113604;28;20179;-75
2021/08/11 10:55:45;;;;;;;5.47;3.63;;;;;;;24.18;50.25;96044.31;5113535;28;20252;-75
2021/08/11 10:58:11;;;;;;;3.88;3.50;;;;;;;24.41;49.55;96050.84;5132062;28;20243;-75
2021/08/11 11:00:40;;;;;;;6.22;3.53;;;;;;;24.27;50.12;96042.19;5113834;28;20642;-75
2021/08/11 11:03:05;;;;;;;5.57;3.35;;;;;;;24.24;50.45;96037.31;5096658;28;20271;-75
2021/08/11 11:05:32;;;;;;;6.90;3.63;;;;;;;24.20;50.63;96034.28;5115363;27;20286;-76
2021/08/11 11:08:10;;;;;;;6.90;3.10;;;;;;;23.85;51.72;96026.06;5135949;27;20174;-75
2021/08/11 11:10:36;;;;;;;5.95;3.53;;;;;;;24.05;50.66;96025.09;5135987;27;20167;-75
2021/08/11 11:13:32;;;;;;;4.70;3.60;;;;;;;24.09;50.00;96028.91;5117227;27;20200;-76
2021/08/11 11:16:04;;;;;;;3.15;2.85;;;;;;;24.68;50.07;96035.41;5117439;27;20290;-76
2021/08/11 11:18:30;;;;;;;5.28;3.97;;;;;;;24.48;49.10;96027.69;5117932;27;20246;-77
2021/08/11 11:20:55;;;;;;;4.68;3.30;;;;;;;24.92;49.14;96026.50;5100455;27;20278;-76
2021/08/11 11:23:41;;;;;;;3.60;2.95;;;;;;;25.08;47.52;96025.88;5135615;27;20250;-75
2021/08/11 11:26:09;;;;;;;3.88;3.47;;;;;;;24.95;49.13;96015.41;5117087;27;20187;-75
2021/08/11 11:28:58;;;;;;;4.65;3.70;;;;;;;24.57;49.68;96021.03;5135468;27;20561;-75
2021/08/11 11:31:27;;;;;;;5.43;3.42;;;;;;;24.93;49.26;96019.34;5116492;27;20463;-75
2021/08/11 11:33:53;;;;;;;4.70;3.60;;;;;;;25.11;49.59;96024.63;5135341;27;20199;-75